Dallardsville, Texas
Current Conditions -  °F | °C
As of 12:15 PM on Thursday 27 Nov 2014 (Local Time) from K6R3 Reporting Station
Clear Clear  
Wind Chill: 62°   Ceiling: Unl
Heat Index: 62°   Visibility: 10mi
Dew Point: 34°   Wind: 0mph
Humidity: 35%   Direction: NA
Pressure: 30.47"   Gusts: NA
Location:  30.63°N, 94.63°W
Report Text: K6R3 271815Z AUTO 00000KT 10SM CLR 17/01 A3047 RMK AO2 T01660010
Loading
Personal Weather Stations






























Interactive Weather Map New forecast layout! Learn more

10-Day Weather Forecast

Advertisements
Track Severe Weather on mobile